sensor_id;sensor_type;location;lat;lon;timestamp;P1;durP1;ratioP1;P2;durP2;ratioP2
77168;SDS011;66143;45.114;20.730;2022-12-18T00:07:46;46.90;;;19.45;;
77168;SDS011;66143;45.114;20.730;2022-12-18T00:17:47;49.00;;;19.42;;
77168;SDS011;66143;45.114;20.730;2022-12-18T00:27:47;44.73;;;18.33;;
77168;SDS011;66143;45.114;20.730;2022-12-18T00:37:48;38.43;;;16.43;;
77168;SDS011;66143;45.114;20.730;2022-12-18T00:47:48;38.22;;;16.77;;
77168;SDS011;66143;45.114;20.730;2022-12-18T00:57:50;43.22;;;16.92;;
77168;SDS011;66143;45.114;20.730;2022-12-18T01:07:51;36.23;;;16.13;;
77168;SDS011;66143;45.114;20.730;2022-12-18T01:17:53;39.30;;;17.15;;
77168;SDS011;66143;45.114;20.730;2022-12-18T01:27:54;35.50;;;15.30;;
77168;SDS011;66143;45.114;20.730;2022-12-18T01:37:54;32.67;;;15.17;;
77168;SDS011;66143;45.114;20.730;2022-12-18T01:48:05;33.57;;;15.20;;
77168;SDS011;66143;45.114;20.730;2022-12-18T01:58:07;30.53;;;13.80;;
77168;SDS011;66143;45.114;20.730;2022-12-18T02:08:13;35.38;;;14.60;;
77168;SDS011;66143;45.114;20.730;2022-12-18T02:18:20;28.70;;;14.00;;
77168;SDS011;66143;45.114;20.730;2022-12-18T02:28:25;34.15;;;13.73;;
77168;SDS011;66143;45.114;20.730;2022-12-18T02:38:32;36.23;;;15.00;;
77168;SDS011;66143;45.114;20.730;2022-12-18T02:48:39;40.87;;;15.73;;
77168;SDS011;66143;45.114;20.730;2022-12-18T03:09:27;38.35;;;15.90;;
77168;SDS011;66143;45.114;20.730;2022-12-18T03:19:32;32.97;;;14.53;;
77168;SDS011;66143;45.114;20.730;2022-12-18T03:29:36;32.17;;;14.17;;
77168;SDS011;66143;45.114;20.730;2022-12-18T03:39:40;34.42;;;14.48;;
77168;SDS011;66143;45.114;20.730;2022-12-18T03:49:48;39.00;;;15.40;;
77168;SDS011;66143;45.114;20.730;2022-12-18T04:00:23;39.80;;;16.90;;
77168;SDS011;66143;45.114;20.730;2022-12-18T04:10:35;36.63;;;15.17;;
77168;SDS011;66143;45.114;20.730;2022-12-18T04:20:36;35.22;;;14.40;;
77168;SDS011;66143;45.114;20.730;2022-12-18T04:30:37;34.27;;;14.93;;
77168;SDS011;66143;45.114;20.730;2022-12-18T04:40:39;37.47;;;17.13;;
77168;SDS011;66143;45.114;20.730;2022-12-18T04:50:46;42.25;;;17.02;;
77168;SDS011;66143;45.114;20.730;2022-12-18T05:00:47;37.63;;;17.03;;
77168;SDS011;66143;45.114;20.730;2022-12-18T05:10:47;38.53;;;15.50;;
77168;SDS011;66143;45.114;20.730;2022-12-18T05:20:48;41.25;;;16.33;;
77168;SDS011;66143;45.114;20.730;2022-12-18T05:30:53;37.50;;;17.37;;
77168;SDS011;66143;45.114;20.730;2022-12-18T05:40:55;39.47;;;16.33;;
77168;SDS011;66143;45.114;20.730;2022-12-18T05:51:02;33.20;;;15.60;;
77168;SDS011;66143;45.114;20.730;2022-12-18T06:01:08;36.63;;;15.75;;
77168;SDS011;66143;45.114;20.730;2022-12-18T06:11:20;50.40;;;21.90;;
77168;SDS011;66143;45.114;20.730;2022-12-18T06:21:23;41.73;;;18.60;;
77168;SDS011;66143;45.114;20.730;2022-12-18T06:31:24;65.13;;;29.37;;
77168;SDS011;66143;45.114;20.730;2022-12-18T06:41:25;71.57;;;33.58;;
77168;SDS011;66143;45.114;20.730;2022-12-18T06:51:27;62.90;;;29.30;;
77168;SDS011;66143;45.114;20.730;2022-12-18T07:01:27;61.55;;;28.67;;
77168;SDS011;66143;45.114;20.730;2022-12-18T07:11:28;66.88;;;29.15;;
77168;SDS011;66143;45.114;20.730;2022-12-18T07:21:28;63.67;;;27.40;;
77168;SDS011;66143;45.114;20.730;2022-12-18T07:31:29;55.20;;;25.20;;
77168;SDS011;66143;45.114;20.730;2022-12-18T07:41:29;91.60;;;39.95;;
77168;SDS011;66143;45.114;20.730;2022-12-18T07:51:30;59.80;;;26.87;;
77168;SDS011;66143;45.114;20.730;2022-12-18T08:01:30;65.13;;;29.65;;
77168;SDS011;66143;45.114;20.730;2022-12-18T08:11:31;107.03;;;47.07;;
77168;SDS011;66143;45.114;20.730;2022-12-18T08:21:32;61.00;;;28.40;;
77168;SDS011;66143;45.114;20.730;2022-12-18T08:31:32;52.30;;;24.90;;
77168;SDS011;66143;45.114;20.730;2022-12-18T08:41:33;48.97;;;23.00;;
77168;SDS011;66143;45.114;20.730;2022-12-18T08:51:33;48.08;;;22.02;;
77168;SDS011;66143;45.114;20.730;2022-12-18T09:01:34;47.77;;;20.73;;
77168;SDS011;66143;45.114;20.730;2022-12-18T09:11:35;52.70;;;22.03;;
77168;SDS011;66143;45.114;20.730;2022-12-18T09:21:35;45.10;;;21.13;;
77168;SDS011;66143;45.114;20.730;2022-12-18T09:31:39;41.78;;;18.52;;
77168;SDS011;66143;45.114;20.730;2022-12-18T09:51:44;48.80;;;21.33;;
77168;SDS011;66143;45.114;20.730;2022-12-18T10:01:47;51.33;;;22.15;;
77168;SDS011;66143;45.114;20.730;2022-12-18T10:32:21;56.83;;;24.43;;
77168;SDS011;66143;45.114;20.730;2022-12-18T10:42:25;48.00;;;22.07;;
77168;SDS011;66143;45.114;20.730;2022-12-18T10:52:26;53.87;;;23.57;;
77168;SDS011;66143;45.114;20.730;2022-12-18T11:02:28;56.05;;;23.10;;
77168;SDS011;66143;45.114;20.730;2022-12-18T11:12:34;51.73;;;21.90;;
77168;SDS011;66143;45.114;20.730;2022-12-18T11:22:35;60.60;;;25.63;;
77168;SDS011;66143;45.114;20.730;2022-12-18T11:32:40;64.90;;;26.83;;
77168;SDS011;66143;45.114;20.730;2022-12-18T11:53:21;44.87;;;20.43;;
77168;SDS011;66143;45.114;20.730;2022-12-18T12:14:03;55.45;;;22.95;;
77168;SDS011;66143;45.114;20.730;2022-12-18T12:34:18;59.07;;;25.93;;
77168;SDS011;66143;45.114;20.730;2022-12-18T12:44:25;63.10;;;27.67;;
77168;SDS011;66143;45.114;20.730;2022-12-18T12:54:32;136.03;;;47.40;;
77168;SDS011;66143;45.114;20.730;2022-12-18T13:14:54;68.20;;;27.25;;
77168;SDS011;66143;45.114;20.730;2022-12-18T13:25:32;77.27;;;33.33;;
77168;SDS011;66143;45.114;20.730;2022-12-18T13:35:37;59.27;;;24.23;;
77168;SDS011;66143;45.114;20.730;2022-12-18T13:45:40;87.77;;;33.47;;
77168;SDS011;66143;45.114;20.730;2022-12-18T13:55:44;61.97;;;24.75;;
77168;SDS011;66143;45.114;20.730;2022-12-18T14:05:45;52.60;;;23.80;;
77168;SDS011;66143;45.114;20.730;2022-12-18T14:15:46;63.77;;;27.27;;
77168;SDS011;66143;45.114;20.730;2022-12-18T14:25:48;65.95;;;26.77;;
77168;SDS011;66143;45.114;20.730;2022-12-18T14:45:56;89.87;;;35.73;;
77168;SDS011;66143;45.114;20.730;2022-12-18T14:55:57;96.20;;;38.77;;
77168;SDS011;66143;45.114;20.730;2022-12-18T15:05:58;83.85;;;34.22;;
77168;SDS011;66143;45.114;20.730;2022-12-18T15:16:15;85.77;;;33.83;;
77168;SDS011;66143;45.114;20.730;2022-12-18T15:26:18;77.18;;;30.30;;
77168;SDS011;66143;45.114;20.730;2022-12-18T15:36:20;112.53;;;41.37;;
77168;SDS011;66143;45.114;20.730;2022-12-18T15:46:23;80.30;;;32.77;;
77168;SDS011;66143;45.114;20.730;2022-12-18T15:56:24;74.03;;;30.05;;
77168;SDS011;66143;45.114;20.730;2022-12-18T16:06:25;86.93;;;34.13;;
77168;SDS011;66143;45.114;20.730;2022-12-18T16:16:25;144.18;;;56.30;;
77168;SDS011;66143;45.114;20.730;2022-12-18T16:26:26;123.73;;;51.30;;
77168;SDS011;66143;45.114;20.730;2022-12-18T16:36:26;141.03;;;58.43;;
77168;SDS011;66143;45.114;20.730;2022-12-18T16:46:27;175.73;;;60.08;;
77168;SDS011;66143;45.114;20.730;2022-12-18T16:56:27;115.27;;;43.23;;
77168;SDS011;66143;45.114;20.730;2022-12-18T17:06:29;113.25;;;45.78;;
77168;SDS011;66143;45.114;20.730;2022-12-18T17:16:30;101.85;;;43.15;;
77168;SDS011;66143;45.114;20.730;2022-12-18T17:26:31;132.10;;;54.33;;
77168;SDS011;66143;45.114;20.730;2022-12-18T17:36:31;178.13;;;73.00;;
77168;SDS011;66143;45.114;20.730;2022-12-18T17:46:32;194.35;;;80.63;;
77168;SDS011;66143;45.114;20.730;2022-12-18T17:56:33;189.70;;;80.05;;
77168;SDS011;66143;45.114;20.730;2022-12-18T18:06:33;236.87;;;90.90;;
77168;SDS011;66143;45.114;20.730;2022-12-18T18:16:35;156.07;;;63.55;;
77168;SDS011;66143;45.114;20.730;2022-12-18T18:26:38;130.13;;;52.88;;
77168;SDS011;66143;45.114;20.730;2022-12-18T18:36:39;171.90;;;66.00;;
77168;SDS011;66143;45.114;20.730;2022-12-18T18:46:40;99.60;;;38.57;;
77168;SDS011;66143;45.114;20.730;2022-12-18T18:56:41;102.93;;;41.10;;
77168;SDS011;66143;45.114;20.730;2022-12-18T19:06:41;87.95;;;39.08;;
77168;SDS011;66143;45.114;20.730;2022-12-18T19:16:42;128.50;;;49.42;;
77168;SDS011;66143;45.114;20.730;2022-12-18T19:26:43;137.23;;;52.37;;
77168;SDS011;66143;45.114;20.730;2022-12-18T19:36:43;158.97;;;66.07;;
77168;SDS011;66143;45.114;20.730;2022-12-18T19:46:44;272.60;;;102.85;;
77168;SDS011;66143;45.114;20.730;2022-12-18T19:56:45;220.33;;;83.27;;
77168;SDS011;66143;45.114;20.730;2022-12-18T20:06:55;207.93;;;83.97;;
77168;SDS011;66143;45.114;20.730;2022-12-18T20:16:55;165.40;;;68.13;;
77168;SDS011;66143;45.114;20.730;2022-12-18T20:26:56;129.00;;;47.78;;
77168;SDS011;66143;45.114;20.730;2022-12-18T20:36:56;101.45;;;40.90;;
77168;SDS011;66143;45.114;20.730;2022-12-18T20:46:57;92.63;;;39.80;;
77168;SDS011;66143;45.114;20.730;2022-12-18T20:56:58;82.97;;;33.67;;
77168;SDS011;66143;45.114;20.730;2022-12-18T21:06:58;100.85;;;36.95;;
77168;SDS011;66143;45.114;20.730;2022-12-18T21:16:59;93.97;;;37.50;;
77168;SDS011;66143;45.114;20.730;2022-12-18T21:26:59;114.07;;;43.13;;
77168;SDS011;66143;45.114;20.730;2022-12-18T21:37:00;106.30;;;40.95;;
77168;SDS011;66143;45.114;20.730;2022-12-18T21:47:01;109.77;;;43.57;;
77168;SDS011;66143;45.114;20.730;2022-12-18T21:57:04;103.53;;;39.40;;
77168;SDS011;66143;45.114;20.730;2022-12-18T22:07:05;89.87;;;33.17;;
77168;SDS011;66143;45.114;20.730;2022-12-18T22:17:05;135.30;;;47.72;;
77168;SDS011;66143;45.114;20.730;2022-12-18T22:27:07;160.07;;;53.70;;
77168;SDS011;66143;45.114;20.730;2022-12-18T22:37:11;120.30;;;41.35;;
77168;SDS011;66143;45.114;20.730;2022-12-18T22:47:11;111.47;;;40.53;;
77168;SDS011;66143;45.114;20.730;2022-12-18T22:57:15;132.00;;;49.97;;
77168;SDS011;66143;45.114;20.730;2022-12-18T23:07:15;160.68;;;57.13;;
77168;SDS011;66143;45.114;20.730;2022-12-18T23:17:16;193.43;;;63.60;;
77168;SDS011;66143;45.114;20.730;2022-12-18T23:27:16;146.95;;;50.13;;
77168;SDS011;66143;45.114;20.730;2022-12-18T23:37:17;166.95;;;58.05;;
77168;SDS011;66143;45.114;20.730;2022-12-18T23:47:18;134.67;;;49.50;;
77168;SDS011;66143;45.114;20.730;2022-12-18T23:57:18;134.00;;;47.45;;
